sensor_id;sensor_type;location;lat;lon;timestamp;temperature;humidity
74540;SHT31;66042;51.090;-115.340;2022-12-18T00:01:27;-13.75;59.91
74540;SHT31;66042;51.090;-115.340;2022-12-18T00:04:01;-13.75;60.07
74540;SHT31;66042;51.090;-115.340;2022-12-18T00:06:32;-13.74;60.22
74540;SHT31;66042;51.090;-115.340;2022-12-18T00:09:02;-13.74;60.21
74540;SHT31;66042;51.090;-115.340;2022-12-18T00:11:30;-13.79;60.02
74540;SHT31;66042;51.090;-115.340;2022-12-18T00:13:58;-13.82;60.02
74540;SHT31;66042;51.090;-115.340;2022-12-18T00:16:26;-13.83;60.04
74540;SHT31;66042;51.090;-115.340;2022-12-18T00:18:56;-13.82;59.98
74540;SHT31;66042;51.090;-115.340;2022-12-18T00:21:24;-13.84;59.92
74540;SHT31;66042;51.090;-115.340;2022-12-18T00:23:52;-13.86;59.98
74540;SHT31;66042;51.090;-115.340;2022-12-18T00:26:20;-13.88;60.00
74540;SHT31;66042;51.090;-115.340;2022-12-18T00:28:51;-13.90;59.90
74540;SHT31;66042;51.090;-115.340;2022-12-18T00:31:19;-13.93;59.99
74540;SHT31;66042;51.090;-115.340;2022-12-18T00:33:49;-13.96;59.91
74540;SHT31;66042;51.090;-115.340;2022-12-18T00:36:18;-14.02;59.83
74540;SHT31;66042;51.090;-115.340;2022-12-18T00:38:49;-14.05;59.96
74540;SHT31;66042;51.090;-115.340;2022-12-18T00:41:16;-14.09;59.82
74540;SHT31;66042;51.090;-115.340;2022-12-18T00:44:06;-14.14;59.58
74540;SHT31;66042;51.090;-115.340;2022-12-18T00:46:37;-14.17;59.45
74540;SHT31;66042;51.090;-115.340;2022-12-18T00:49:04;-14.21;59.36
74540;SHT31;66042;51.090;-115.340;2022-12-18T00:51:32;-14.22;59.47
74540;SHT31;66042;51.090;-115.340;2022-12-18T00:53:59;-14.26;59.33
74540;SHT31;66042;51.090;-115.340;2022-12-18T00:56:26;-14.32;58.96
74540;SHT31;66042;51.090;-115.340;2022-12-18T00:58:53;-14.37;58.87
74540;SHT31;66042;51.090;-115.340;2022-12-18T01:01:20;-14.43;58.91
74540;SHT31;66042;51.090;-115.340;2022-12-18T01:03:49;-14.46;58.97
74540;SHT31;66042;51.090;-115.340;2022-12-18T01:06:16;-14.51;59.03
74540;SHT31;66042;51.090;-115.340;2022-12-18T01:08:43;-14.57;58.78
74540;SHT31;66042;51.090;-115.340;2022-12-18T01:11:11;-14.64;58.79
74540;SHT31;66042;51.090;-115.340;2022-12-18T01:13:42;-14.68;58.94
74540;SHT31;66042;51.090;-115.340;2022-12-18T01:16:14;-14.73;59.06
74540;SHT31;66042;51.090;-115.340;2022-12-18T01:18:43;-14.76;59.10
74540;SHT31;66042;51.090;-115.340;2022-12-18T01:21:11;-14.81;59.00
74540;SHT31;66042;51.090;-115.340;2022-12-18T01:23:41;-14.87;59.06
74540;SHT31;66042;51.090;-115.340;2022-12-18T01:26:13;-14.92;58.96
74540;SHT31;66042;51.090;-115.340;2022-12-18T01:28:41;-14.97;58.95
74540;SHT31;66042;51.090;-115.340;2022-12-18T01:31:17;-15.00;59.07
74540;SHT31;66042;51.090;-115.340;2022-12-18T01:33:46;-15.04;59.07
74540;SHT31;66042;51.090;-115.340;2022-12-18T01:36:22;-15.06;58.94
74540;SHT31;66042;51.090;-115.340;2022-12-18T01:38:59;-15.13;58.87
74540;SHT31;66042;51.090;-115.340;2022-12-18T01:41:32;-15.20;58.89
74540;SHT31;66042;51.090;-115.340;2022-12-18T01:50:27;-15.28;59.14
74540;SHT31;66042;51.090;-115.340;2022-12-18T01:53:15;-15.25;59.33
74540;SHT31;66042;51.090;-115.340;2022-12-18T01:55:56;-15.29;59.18
74540;SHT31;66042;51.090;-115.340;2022-12-18T01:58:30;-15.31;59.02
74540;SHT31;66042;51.090;-115.340;2022-12-18T02:01:09;-15.31;59.00
74540;SHT31;66042;51.090;-115.340;2022-12-18T02:03:40;-15.30;59.04
74540;SHT31;66042;51.090;-115.340;2022-12-18T02:06:41;-15.29;59.10
74540;SHT31;66042;51.090;-115.340;2022-12-18T02:09:18;-15.28;58.97
74540;SHT31;66042;51.090;-115.340;2022-12-18T02:15:19;-15.30;58.99
74540;SHT31;66042;51.090;-115.340;2022-12-18T02:18:04;-15.31;58.92
74540;SHT31;66042;51.090;-115.340;2022-12-18T02:26:58;-15.40;59.24
74540;SHT31;66042;51.090;-115.340;2022-12-18T02:29:38;-15.40;59.34
74540;SHT31;66042;51.090;-115.340;2022-12-18T02:32:22;-15.39;59.25
74540;SHT31;66042;51.090;-115.340;2022-12-18T02:34:56;-15.39;59.25
74540;SHT31;66042;51.090;-115.340;2022-12-18T02:37:25;-15.42;59.13
74540;SHT31;66042;51.090;-115.340;2022-12-18T02:39:56;-15.47;59.00
74540;SHT31;66042;51.090;-115.340;2022-12-18T02:42:27;-15.51;59.08
74540;SHT31;66042;51.090;-115.340;2022-12-18T02:44:54;-15.56;59.09
74540;SHT31;66042;51.090;-115.340;2022-12-18T02:47:21;-15.58;59.20
74540;SHT31;66042;51.090;-115.340;2022-12-18T02:53:10;-15.67;59.19
74540;SHT31;66042;51.090;-115.340;2022-12-18T02:59:13;-15.76;59.47
74540;SHT31;66042;51.090;-115.340;2022-12-18T03:01:58;-15.81;59.40
74540;SHT31;66042;51.090;-115.340;2022-12-18T03:04:47;-15.88;59.50
74540;SHT31;66042;51.090;-115.340;2022-12-18T03:08:13;-15.88;59.73
74540;SHT31;66042;51.090;-115.340;2022-12-18T03:10:27;-15.91;59.82
74540;SHT31;66042;51.090;-115.340;2022-12-18T03:13:04;-15.93;59.90
74540;SHT31;66042;51.090;-115.340;2022-12-18T03:15:50;-15.94;59.90
74540;SHT31;66042;51.090;-115.340;2022-12-18T03:18:25;-15.94;60.03
74540;SHT31;66042;51.090;-115.340;2022-12-18T03:21:21;-15.96;60.21
74540;SHT31;66042;51.090;-115.340;2022-12-18T03:23:59;-15.97;60.35
74540;SHT31;66042;51.090;-115.340;2022-12-18T03:26:31;-16.02;60.33
74540;SHT31;66042;51.090;-115.340;2022-12-18T03:29:02;-16.07;60.33
74540;SHT31;66042;51.090;-115.340;2022-12-18T03:31:39;-16.08;60.49
74540;SHT31;66042;51.090;-115.340;2022-12-18T03:34:21;-16.11;60.43
74540;SHT31;66042;51.090;-115.340;2022-12-18T03:36:56;-16.14;60.48
74540;SHT31;66042;51.090;-115.340;2022-12-18T03:39:24;-16.17;60.63
74540;SHT31;66042;51.090;-115.340;2022-12-18T03:41:52;-16.19;60.78
74540;SHT31;66042;51.090;-115.340;2022-12-18T03:44:40;-16.24;60.78
74540;SHT31;66042;51.090;-115.340;2022-12-18T03:52:52;-16.32;61.01
74540;SHT31;66042;51.090;-115.340;2022-12-18T03:55:25;-16.33;61.06
74540;SHT31;66042;51.090;-115.340;2022-12-18T03:57:59;-16.37;60.94
74540;SHT31;66042;51.090;-115.340;2022-12-18T04:00:30;-16.42;60.90
74540;SHT31;66042;51.090;-115.340;2022-12-18T04:02:59;-16.45;60.90
74540;SHT31;66042;51.090;-115.340;2022-12-18T04:05:30;-16.50;60.83
74540;SHT31;66042;51.090;-115.340;2022-12-18T04:08:02;-16.53;60.95
74540;SHT31;66042;51.090;-115.340;2022-12-18T04:10:30;-16.57;60.81
74540;SHT31;66042;51.090;-115.340;2022-12-18T04:12:57;-16.62;60.80
74540;SHT31;66042;51.090;-115.340;2022-12-18T04:15:24;-16.66;60.70
74540;SHT31;66042;51.090;-115.340;2022-12-18T04:17:51;-16.68;60.77
74540;SHT31;66042;51.090;-115.340;2022-12-18T04:20:18;-16.72;60.62
74540;SHT31;66042;51.090;-115.340;2022-12-18T04:22:46;-16.77;60.48
74540;SHT31;66042;51.090;-115.340;2022-12-18T04:25:13;-16.81;60.39
74540;SHT31;66042;51.090;-115.340;2022-12-18T04:27:40;-16.85;60.29
74540;SHT31;66042;51.090;-115.340;2022-12-18T04:30:07;-16.88;60.21
74540;SHT31;66042;51.090;-115.340;2022-12-18T04:32:35;-16.91;60.21
74540;SHT31;66042;51.090;-115.340;2022-12-18T04:35:02;-16.94;60.07
74540;SHT31;66042;51.090;-115.340;2022-12-18T04:37:31;-16.96;59.99
74540;SHT31;66042;51.090;-115.340;2022-12-18T04:39:58;-16.97;60.00
74540;SHT31;66042;51.090;-115.340;2022-12-18T04:42:25;-17.00;59.88
74540;SHT31;66042;51.090;-115.340;2022-12-18T04:44:52;-17.02;59.89
74540;SHT31;66042;51.090;-115.340;2022-12-18T04:47:21;-17.07;59.75
74540;SHT31;66042;51.090;-115.340;2022-12-18T04:49:48;-17.12;59.62
74540;SHT31;66042;51.090;-115.340;2022-12-18T04:52:15;-17.15;59.59
74540;SHT31;66042;51.090;-115.340;2022-12-18T04:54:42;-17.23;59.34
74540;SHT31;66042;51.090;-115.340;2022-12-18T04:57:09;-17.28;59.46
74540;SHT31;66042;51.090;-115.340;2022-12-18T04:59:36;-17.32;59.46
74540;SHT31;66042;51.090;-115.340;2022-12-18T05:02:03;-17.37;59.54
74540;SHT31;66042;51.090;-115.340;2022-12-18T05:04:31;-17.40;59.51
74540;SHT31;66042;51.090;-115.340;2022-12-18T05:06:58;-17.42;59.52
74540;SHT31;66042;51.090;-115.340;2022-12-18T05:09:25;-17.42;59.57
74540;SHT31;66042;51.090;-115.340;2022-12-18T05:11:53;-17.41;59.46
74540;SHT31;66042;51.090;-115.340;2022-12-18T05:14:20;-17.40;59.40
74540;SHT31;66042;51.090;-115.340;2022-12-18T05:16:47;-17.41;59.27
74540;SHT31;66042;51.090;-115.340;2022-12-18T05:19:14;-17.44;59.20
74540;SHT31;66042;51.090;-115.340;2022-12-18T05:21:41;-17.46;59.11
74540;SHT31;66042;51.090;-115.340;2022-12-18T05:24:08;-17.47;59.09
74540;SHT31;66042;51.090;-115.340;2022-12-18T05:26:34;-17.51;59.09
74540;SHT31;66042;51.090;-115.340;2022-12-18T05:29:01;-17.53;59.04
74540;SHT31;66042;51.090;-115.340;2022-12-18T05:31:28;-17.58;58.95
74540;SHT31;66042;51.090;-115.340;2022-12-18T05:33:55;-17.58;59.00
74540;SHT31;66042;51.090;-115.340;2022-12-18T05:36:22;-17.60;59.00
74540;SHT31;66042;51.090;-115.340;2022-12-18T05:38:49;-17.61;58.93
74540;SHT31;66042;51.090;-115.340;2022-12-18T05:41:16;-17.60;59.00
74540;SHT31;66042;51.090;-115.340;2022-12-18T05:43:44;-17.60;58.92
74540;SHT31;66042;51.090;-115.340;2022-12-18T05:46:12;-17.61;58.81
74540;SHT31;66042;51.090;-115.340;2022-12-18T05:48:42;-17.61;58.65
74540;SHT31;66042;51.090;-115.340;2022-12-18T05:51:13;-17.63;58.55
74540;SHT31;66042;51.090;-115.340;2022-12-18T05:53:42;-17.61;58.48
74540;SHT31;66042;51.090;-115.340;2022-12-18T05:56:17;-17.64;58.26
74540;SHT31;66042;51.090;-115.340;2022-12-18T05:58:47;-17.67;58.01
74540;SHT31;66042;51.090;-115.340;2022-12-18T06:01:20;-17.71;57.82
74540;SHT31;66042;51.090;-115.340;2022-12-18T06:03:51;-17.74;57.71
74540;SHT31;66042;51.090;-115.340;2022-12-18T06:08:49;-17.80;57.65
74540;SHT31;66042;51.090;-115.340;2022-12-18T06:11:18;-17.80;57.78
74540;SHT31;66042;51.090;-115.340;2022-12-18T06:13:51;-17.83;57.81
74540;SHT31;66042;51.090;-115.340;2022-12-18T06:16:20;-17.83;57.89
74540;SHT31;66042;51.090;-115.340;2022-12-18T06:18:47;-17.81;57.99
74540;SHT31;66042;51.090;-115.340;2022-12-18T06:21:17;-17.84;58.03
74540;SHT31;66042;51.090;-115.340;2022-12-18T06:23:45;-17.86;58.03
74540;SHT31;66042;51.090;-115.340;2022-12-18T06:26:12;-17.85;58.06
74540;SHT31;66042;51.090;-115.340;2022-12-18T06:28:40;-17.85;58.09
74540;SHT31;66042;51.090;-115.340;2022-12-18T06:31:07;-17.89;58.00
74540;SHT31;66042;51.090;-115.340;2022-12-18T06:33:35;-17.90;58.02
74540;SHT31;66042;51.090;-115.340;2022-12-18T06:36:04;-17.91;58.04
74540;SHT31;66042;51.090;-115.340;2022-12-18T06:38:37;-17.94;58.04
74540;SHT31;66042;51.090;-115.340;2022-12-18T06:41:13;-17.95;58.24
74540;SHT31;66042;51.090;-115.340;2022-12-18T06:43:42;-17.94;58.40
74540;SHT31;66042;51.090;-115.340;2022-12-18T06:46:10;-17.91;58.21
74540;SHT31;66042;51.090;-115.340;2022-12-18T06:48:38;-17.90;57.95
74540;SHT31;66042;51.090;-115.340;2022-12-18T06:51:05;-17.90;57.86
74540;SHT31;66042;51.090;-115.340;2022-12-18T06:53:32;-17.94;57.80
74540;SHT31;66042;51.090;-115.340;2022-12-18T06:56:00;-17.95;57.70
74540;SHT31;66042;51.090;-115.340;2022-12-18T06:58:29;-17.98;57.69
74540;SHT31;66042;51.090;-115.340;2022-12-18T07:01:00;-18.01;57.61
74540;SHT31;66042;51.090;-115.340;2022-12-18T07:03:30;-18.01;57.62
74540;SHT31;66042;51.090;-115.340;2022-12-18T07:05:57;-18.05;57.44
74540;SHT31;66042;51.090;-115.340;2022-12-18T07:08:25;-18.06;57.46
74540;SHT31;66042;51.090;-115.340;2022-12-18T07:10:52;-18.02;57.68
74540;SHT31;66042;51.090;-115.340;2022-12-18T07:13:19;-18.02;57.60
74540;SHT31;66042;51.090;-115.340;2022-12-18T07:15:46;-18.01;57.65
74540;SHT31;66042;51.090;-115.340;2022-12-18T07:18:13;-18.00;57.71
74540;SHT31;66042;51.090;-115.340;2022-12-18T07:20:40;-18.00;57.67
74540;SHT31;66042;51.090;-115.340;2022-12-18T07:23:07;-18.04;57.62
74540;SHT31;66042;51.090;-115.340;2022-12-18T07:25:35;-18.05;57.74
74540;SHT31;66042;51.090;-115.340;2022-12-18T07:28:02;-18.05;57.87
74540;SHT31;66042;51.090;-115.340;2022-12-18T07:30:30;-18.06;58.01
74540;SHT31;66042;51.090;-115.340;2022-12-18T07:32:57;-18.07;58.22
74540;SHT31;66042;51.090;-115.340;2022-12-18T07:35:24;-18.06;58.34
74540;SHT31;66042;51.090;-115.340;2022-12-18T07:37:51;-18.05;58.49
74540;SHT31;66042;51.090;-115.340;2022-12-18T07:40:18;-18.06;58.75
74540;SHT31;66042;51.090;-115.340;2022-12-18T07:42:45;-18.07;58.96
74540;SHT31;66042;51.090;-115.340;2022-12-18T07:45:12;-18.07;59.08
74540;SHT31;66042;51.090;-115.340;2022-12-18T07:47:39;-18.10;59.15
74540;SHT31;66042;51.090;-115.340;2022-12-18T07:50:07;-18.16;59.37
74540;SHT31;66042;51.090;-115.340;2022-12-18T07:52:34;-18.14;59.63
74540;SHT31;66042;51.090;-115.340;2022-12-18T07:55:01;-18.14;59.70
74540;SHT31;66042;51.090;-115.340;2022-12-18T07:57:28;-18.12;59.77
74540;SHT31;66042;51.090;-115.340;2022-12-18T07:59:55;-18.14;59.82
74540;SHT31;66042;51.090;-115.340;2022-12-18T08:02:22;-18.14;59.98
74540;SHT31;66042;51.090;-115.340;2022-12-18T08:04:55;-18.15;60.07
74540;SHT31;66042;51.090;-115.340;2022-12-18T08:07:23;-18.18;59.95
74540;SHT31;66042;51.090;-115.340;2022-12-18T08:09:50;-18.22;59.96
74540;SHT31;66042;51.090;-115.340;2022-12-18T08:12:17;-18.26;60.07
74540;SHT31;66042;51.090;-115.340;2022-12-18T08:14:44;-18.30;60.09
74540;SHT31;66042;51.090;-115.340;2022-12-18T08:17:11;-18.33;60.09
74540;SHT31;66042;51.090;-115.340;2022-12-18T08:19:39;-18.36;60.24
74540;SHT31;66042;51.090;-115.340;2022-12-18T08:22:06;-18.39;60.18
74540;SHT31;66042;51.090;-115.340;2022-12-18T08:24:33;-18.40;60.10
74540;SHT31;66042;51.090;-115.340;2022-12-18T08:27:00;-18.40;60.20
74540;SHT31;66042;51.090;-115.340;2022-12-18T08:29:27;-18.38;60.30
74540;SHT31;66042;51.090;-115.340;2022-12-18T08:31:54;-18.40;60.23
74540;SHT31;66042;51.090;-115.340;2022-12-18T08:34:21;-18.39;60.35
74540;SHT31;66042;51.090;-115.340;2022-12-18T08:36:47;-18.40;60.22
74540;SHT31;66042;51.090;-115.340;2022-12-18T08:39:15;-18.38;60.20
74540;SHT31;66042;51.090;-115.340;2022-12-18T08:41:42;-18.40;60.07
74540;SHT31;66042;51.090;-115.340;2022-12-18T08:44:29;-18.43;59.93
74540;SHT31;66042;51.090;-115.340;2022-12-18T08:47:05;-18.44;60.00
74540;SHT31;66042;51.090;-115.340;2022-12-18T08:49:33;-18.43;60.04
74540;SHT31;66042;51.090;-115.340;2022-12-18T08:52:01;-18.44;60.00
74540;SHT31;66042;51.090;-115.340;2022-12-18T08:54:28;-18.47;59.96
74540;SHT31;66042;51.090;-115.340;2022-12-18T08:56:55;-18.51;59.77
74540;SHT31;66042;51.090;-115.340;2022-12-18T08:59:22;-18.52;59.89
74540;SHT31;66042;51.090;-115.340;2022-12-18T09:01:50;-18.57;59.77
74540;SHT31;66042;51.090;-115.340;2022-12-18T09:04:20;-18.63;59.71
74540;SHT31;66042;51.090;-115.340;2022-12-18T09:06:48;-18.63;59.76
74540;SHT31;66042;51.090;-115.340;2022-12-18T09:09:15;-18.63;59.86
74540;SHT31;66042;51.090;-115.340;2022-12-18T09:11:42;-18.61;59.86
74540;SHT31;66042;51.090;-115.340;2022-12-18T09:14:09;-18.60;59.83
74540;SHT31;66042;51.090;-115.340;2022-12-18T09:16:36;-18.61;59.74
74540;SHT31;66042;51.090;-115.340;2022-12-18T09:19:03;-18.60;59.79
74540;SHT31;66042;51.090;-115.340;2022-12-18T09:21:32;-18.57;59.78
74540;SHT31;66042;51.090;-115.340;2022-12-18T09:24:01;-18.57;59.74
74540;SHT31;66042;51.090;-115.340;2022-12-18T09:26:28;-18.57;59.87
74540;SHT31;66042;51.090;-115.340;2022-12-18T09:28:55;-18.53;59.90
74540;SHT31;66042;51.090;-115.340;2022-12-18T09:31:23;-18.51;59.94
74540;SHT31;66042;51.090;-115.340;2022-12-18T09:33:51;-18.49;59.82
74540;SHT31;66042;51.090;-115.340;2022-12-18T09:36:18;-18.50;59.69
74540;SHT31;66042;51.090;-115.340;2022-12-18T09:38:45;-18.54;59.49
74540;SHT31;66042;51.090;-115.340;2022-12-18T09:41:19;-18.55;59.57
74540;SHT31;66042;51.090;-115.340;2022-12-18T09:44:19;-18.54;59.70
74540;SHT31;66042;51.090;-115.340;2022-12-18T09:47:02;-18.58;59.57
74540;SHT31;66042;51.090;-115.340;2022-12-18T09:49:44;-18.57;59.42
74540;SHT31;66042;51.090;-115.340;2022-12-18T09:52:23;-18.56;59.49
74540;SHT31;66042;51.090;-115.340;2022-12-18T09:55:05;-18.55;59.70
74540;SHT31;66042;51.090;-115.340;2022-12-18T09:58:26;-18.58;59.35
74540;SHT31;66042;51.090;-115.340;2022-12-18T10:01:02;-18.59;59.32
74540;SHT31;66042;51.090;-115.340;2022-12-18T10:03:37;-18.58;59.35
74540;SHT31;66042;51.090;-115.340;2022-12-18T10:11:59;-18.54;59.30
74540;SHT31;66042;51.090;-115.340;2022-12-18T10:15:33;-18.55;59.15
74540;SHT31;66042;51.090;-115.340;2022-12-18T10:18:05;-18.56;59.01
74540;SHT31;66042;51.090;-115.340;2022-12-18T10:21:18;-18.60;58.85
74540;SHT31;66042;51.090;-115.340;2022-12-18T10:24:45;-18.59;58.89
74540;SHT31;66042;51.090;-115.340;2022-12-18T10:27:29;-18.64;58.80
74540;SHT31;66042;51.090;-115.340;2022-12-18T10:29:57;-18.61;58.96
74540;SHT31;66042;51.090;-115.340;2022-12-18T10:32:27;-18.56;59.11
74540;SHT31;66042;51.090;-115.340;2022-12-18T10:34:56;-18.55;59.10
74540;SHT31;66042;51.090;-115.340;2022-12-18T10:37:25;-18.54;59.08
74540;SHT31;66042;51.090;-115.340;2022-12-18T10:40:14;-18.51;59.10
74540;SHT31;66042;51.090;-115.340;2022-12-18T10:42:42;-18.53;58.81
74540;SHT31;66042;51.090;-115.340;2022-12-18T10:45:10;-18.56;58.81
74540;SHT31;66042;51.090;-115.340;2022-12-18T10:47:46;-18.56;58.71
74540;SHT31;66042;51.090;-115.340;2022-12-18T10:50:19;-18.55;58.39
74540;SHT31;66042;51.090;-115.340;2022-12-18T10:53:00;-18.56;57.98
74540;SHT31;66042;51.090;-115.340;2022-12-18T10:55:34;-18.59;57.58
74540;SHT31;66042;51.090;-115.340;2022-12-18T10:58:29;-18.58;57.79
74540;SHT31;66042;51.090;-115.340;2022-12-18T11:01:06;-18.57;57.78
74540;SHT31;66042;51.090;-115.340;2022-12-18T11:03:43;-18.58;57.66
74540;SHT31;66042;51.090;-115.340;2022-12-18T11:06:26;-18.57;57.81
74540;SHT31;66042;51.090;-115.340;2022-12-18T11:08:59;-18.64;57.85
74540;SHT31;66042;51.090;-115.340;2022-12-18T11:11:49;-18.67;57.94
74540;SHT31;66042;51.090;-115.340;2022-12-18T11:15:04;-18.74;57.88
74540;SHT31;66042;51.090;-115.340;2022-12-18T11:17:25;-18.76;57.79
74540;SHT31;66042;51.090;-115.340;2022-12-18T11:20:05;-18.77;57.71
74540;SHT31;66042;51.090;-115.340;2022-12-18T11:23:02;-18.79;57.66
74540;SHT31;66042;51.090;-115.340;2022-12-18T11:25:38;-18.84;57.71
74540;SHT31;66042;51.090;-115.340;2022-12-18T11:28:24;-18.87;57.80
74540;SHT31;66042;51.090;-115.340;2022-12-18T11:36:45;-18.86;58.17
74540;SHT31;66042;51.090;-115.340;2022-12-18T11:44:48;-18.83;58.49
74540;SHT31;66042;51.090;-115.340;2022-12-18T11:50:24;-18.82;58.63
74540;SHT31;66042;51.090;-115.340;2022-12-18T11:53:21;-18.81;58.53
74540;SHT31;66042;51.090;-115.340;2022-12-18T12:05:15;-18.86;58.21
74540;SHT31;66042;51.090;-115.340;2022-12-18T12:08:02;-18.88;58.13
74540;SHT31;66042;51.090;-115.340;2022-12-18T12:16:12;-18.98;57.73
74540;SHT31;66042;51.090;-115.340;2022-12-18T12:25:00;-18.99;58.48
74540;SHT31;66042;51.090;-115.340;2022-12-18T12:33:56;-19.00;58.42
74540;SHT31;66042;51.090;-115.340;2022-12-18T12:39:45;-19.09;58.26
74540;SHT31;66042;51.090;-115.340;2022-12-18T12:42:25;-19.10;58.39
74540;SHT31;66042;51.090;-115.340;2022-12-18T12:45:24;-19.08;58.56
74540;SHT31;66042;51.090;-115.340;2022-12-18T12:48:56;-19.09;58.70
74540;SHT31;66042;51.090;-115.340;2022-12-18T12:51:21;-19.10;58.46
74540;SHT31;66042;51.090;-115.340;2022-12-18T12:53:54;-19.10;58.32
74540;SHT31;66042;51.090;-115.340;2022-12-18T12:56:26;-19.13;58.08
74540;SHT31;66042;51.090;-115.340;2022-12-18T12:59:31;-19.16;57.73
74540;SHT31;66042;51.090;-115.340;2022-12-18T13:05:09;-19.20;57.52
74540;SHT31;66042;51.090;-115.340;2022-12-18T13:08:21;-19.19;57.50
74540;SHT31;66042;51.090;-115.340;2022-12-18T13:11:38;-19.16;57.62
74540;SHT31;66042;51.090;-115.340;2022-12-18T13:17:21;-19.16;57.63
74540;SHT31;66042;51.090;-115.340;2022-12-18T13:20:15;-19.20;57.60
74540;SHT31;66042;51.090;-115.340;2022-12-18T13:30:47;-19.20;58.07
74540;SHT31;66042;51.090;-115.340;2022-12-18T13:41:53;-19.17;57.94
74540;SHT31;66042;51.090;-115.340;2022-12-18T13:45:00;-19.19;57.80
74540;SHT31;66042;51.090;-115.340;2022-12-18T13:50:10;-19.21;57.88
74540;SHT31;66042;51.090;-115.340;2022-12-18T13:52:54;-19.24;57.65
74540;SHT31;66042;51.090;-115.340;2022-12-18T13:55:21;-19.27;57.66
74540;SHT31;66042;51.090;-115.340;2022-12-18T13:57:49;-19.30;57.74
74540;SHT31;66042;51.090;-115.340;2022-12-18T14:00:31;-19.30;57.80
74540;SHT31;66042;51.090;-115.340;2022-12-18T14:02:58;-19.33;57.79
74540;SHT31;66042;51.090;-115.340;2022-12-18T14:05:27;-19.34;57.85
74540;SHT31;66042;51.090;-115.340;2022-12-18T14:08:00;-19.38;57.80
74540;SHT31;66042;51.090;-115.340;2022-12-18T14:10:33;-19.38;57.80
74540;SHT31;66042;51.090;-115.340;2022-12-18T14:13:08;-19.39;57.84
74540;SHT31;66042;51.090;-115.340;2022-12-18T14:15:45;-19.39;57.82
74540;SHT31;66042;51.090;-115.340;2022-12-18T14:24:19;-19.52;57.96
74540;SHT31;66042;51.090;-115.340;2022-12-18T14:26:48;-19.58;58.06
74540;SHT31;66042;51.090;-115.340;2022-12-18T14:32:12;-19.70;58.17
74540;SHT31;66042;51.090;-115.340;2022-12-18T14:34:44;-19.73;58.31
74540;SHT31;66042;51.090;-115.340;2022-12-18T14:37:23;-19.74;58.46
74540;SHT31;66042;51.090;-115.340;2022-12-18T14:39:56;-19.75;58.40
74540;SHT31;66042;51.090;-115.340;2022-12-18T14:42:29;-19.78;58.26
74540;SHT31;66042;51.090;-115.340;2022-12-18T14:48:05;-19.78;58.22
74540;SHT31;66042;51.090;-115.340;2022-12-18T14:50:59;-19.82;58.22
74540;SHT31;66042;51.090;-115.340;2022-12-18T14:54:00;-19.85;58.33
74540;SHT31;66042;51.090;-115.340;2022-12-18T14:56:44;-19.86;58.42
74540;SHT31;66042;51.090;-115.340;2022-12-18T14:59:19;-19.88;58.30
74540;SHT31;66042;51.090;-115.340;2022-12-18T15:01:57;-19.89;58.19
74540;SHT31;66042;51.090;-115.340;2022-12-18T15:04:39;-19.91;58.11
74540;SHT31;66042;51.090;-115.340;2022-12-18T15:07:19;-19.91;58.10
74540;SHT31;66042;51.090;-115.340;2022-12-18T15:20:54;-19.85;57.78
74540;SHT31;66042;51.090;-115.340;2022-12-18T15:26:15;-19.90;57.76
74540;SHT31;66042;51.090;-115.340;2022-12-18T15:28:46;-19.88;57.91
74540;SHT31;66042;51.090;-115.340;2022-12-18T15:36:46;-19.98;57.73
74540;SHT31;66042;51.090;-115.340;2022-12-18T15:39:13;-19.98;57.80
74540;SHT31;66042;51.090;-115.340;2022-12-18T15:41:40;-19.98;57.80
74540;SHT31;66042;51.090;-115.340;2022-12-18T15:44:27;-19.92;57.89
74540;SHT31;66042;51.090;-115.340;2022-12-18T15:46:54;-19.89;57.71
74540;SHT31;66042;51.090;-115.340;2022-12-18T15:49:22;-19.90;57.52
74540;SHT31;66042;51.090;-115.340;2022-12-18T15:51:52;-19.91;57.50
74540;SHT31;66042;51.090;-115.340;2022-12-18T15:54:23;-19.91;57.59
74540;SHT31;66042;51.090;-115.340;2022-12-18T15:57:10;-19.89;57.60
74540;SHT31;66042;51.090;-115.340;2022-12-18T15:59:54;-19.87;57.69
74540;SHT31;66042;51.090;-115.340;2022-12-18T16:02:23;-19.83;57.98
74540;SHT31;66042;51.090;-115.340;2022-12-18T16:04:51;-19.83;57.91
74540;SHT31;66042;51.090;-115.340;2022-12-18T16:07:19;-19.88;57.82
74540;SHT31;66042;51.090;-115.340;2022-12-18T16:09:47;-19.88;57.76
74540;SHT31;66042;51.090;-115.340;2022-12-18T16:12:18;-19.85;57.90
74540;SHT31;66042;51.090;-115.340;2022-12-18T16:14:48;-19.83;58.04
74540;SHT31;66042;51.090;-115.340;2022-12-18T16:17:16;-19.81;58.01
74540;SHT31;66042;51.090;-115.340;2022-12-18T16:19:43;-19.84;57.92
74540;SHT31;66042;51.090;-115.340;2022-12-18T16:22:21;-19.81;58.03
74540;SHT31;66042;51.090;-115.340;2022-12-18T16:24:56;-19.80;58.01
74540;SHT31;66042;51.090;-115.340;2022-12-18T16:27:23;-19.79;58.12
74540;SHT31;66042;51.090;-115.340;2022-12-18T16:29:51;-19.78;58.13
74540;SHT31;66042;51.090;-115.340;2022-12-18T16:32:19;-19.79;58.10
74540;SHT31;66042;51.090;-115.340;2022-12-18T16:34:47;-19.79;58.07
74540;SHT31;66042;51.090;-115.340;2022-12-18T16:37:14;-19.82;57.93
74540;SHT31;66042;51.090;-115.340;2022-12-18T16:39:42;-19.85;57.90
74540;SHT31;66042;51.090;-115.340;2022-12-18T16:42:14;-19.86;57.91
74540;SHT31;66042;51.090;-115.340;2022-12-18T16:44:45;-19.86;57.93
74540;SHT31;66042;51.090;-115.340;2022-12-18T16:47:13;-19.87;57.90
74540;SHT31;66042;51.090;-115.340;2022-12-18T16:49:42;-19.85;57.94
74540;SHT31;66042;51.090;-115.340;2022-12-18T16:52:10;-19.84;57.81
74540;SHT31;66042;51.090;-115.340;2022-12-18T16:54:38;-19.81;57.86
74540;SHT31;66042;51.090;-115.340;2022-12-18T16:57:05;-19.79;57.90
74540;SHT31;66042;51.090;-115.340;2022-12-18T16:59:32;-19.74;57.90
74540;SHT31;66042;51.090;-115.340;2022-12-18T17:02:00;-19.70;57.68
74540;SHT31;66042;51.090;-115.340;2022-12-18T17:04:29;-19.68;57.51
74540;SHT31;66042;51.090;-115.340;2022-12-18T17:06:56;-19.67;57.46
74540;SHT31;66042;51.090;-115.340;2022-12-18T17:09:23;-19.65;57.58
74540;SHT31;66042;51.090;-115.340;2022-12-18T17:11:51;-19.63;57.68
74540;SHT31;66042;51.090;-115.340;2022-12-18T17:14:20;-19.62;57.63
74540;SHT31;66042;51.090;-115.340;2022-12-18T17:16:50;-19.59;57.70
74540;SHT31;66042;51.090;-115.340;2022-12-18T17:19:18;-19.55;57.66
74540;SHT31;66042;51.090;-115.340;2022-12-18T17:21:46;-19.53;57.32
74540;SHT31;66042;51.090;-115.340;2022-12-18T17:24:15;-19.49;57.24
74540;SHT31;66042;51.090;-115.340;2022-12-18T17:26:42;-19.41;57.19
74540;SHT31;66042;51.090;-115.340;2022-12-18T17:29:14;-19.39;57.00